Time;durP1;ratioP1;P1;durP2;ratioP2;P2;SDS_P1;SDS_P2;PMS_P1;PMS_P2;Temp;Humidity;BMP_temperature;BMP_pressure;BME280_temperature;BME280_humidity;BME280_pressure;Samples;Min_cycle;Max_cycle;Signal;HPM_P1;HPM_P2
2022/03/09 00:01:36;;;;;;;6.28;4.88;;;;;;;;;;5095021;28;20044;-63
2022/03/09 00:04:02;;;;;;;7.20;5.03;;;;;;;;;;5101730;28;20118;-63
2022/03/09 00:06:28;;;;;;;6.93;5.07;;;;;;;;;;5097817;28;20404;-62
2022/03/09 00:08:54;;;;;;;6.18;4.75;;;;;;;;;;5105369;28;20040;-62
2022/03/09 00:11:20;;;;;;;6.13;4.78;;;;;;;;;;5095254;28;20032;-62
2022/03/09 00:13:46;;;;;;;7.25;5.45;;;;;;;;;;5093310;28;20406;-65
2022/03/09 00:16:13;;;;;;;5.93;4.53;;;;;;;;;;5110968;28;20043;-63
2022/03/09 00:18:39;;;;;;;8.68;5.57;;;;;;;;;;5107942;28;20472;-64
2022/03/09 00:21:05;;;;;;;9.20;5.38;;;;;;;;;;5100886;28;20512;-65
2022/03/09 00:23:31;;;;;;;6.55;5.18;;;;;;;;;;5096320;28;20118;-64
2022/03/09 00:25:57;;;;;;;6.65;5.00;;;;;;;;;;5106872;28;20480;-64
2022/03/09 00:28:23;;;;;;;8.65;4.88;;;;;;;;;;5081387;28;20048;-65
2022/03/09 00:30:49;;;;;;;6.07;5.35;;;;;;;;;;5113412;28;20119;-64
2022/03/09 00:33:15;;;;;;;7.90;5.03;;;;;;;;;;5084783;28;20047;-63
2022/03/09 00:35:43;;;;;;;6.68;5.25;;;;;;;;;;5104588;28;20039;-65
2022/03/09 00:38:10;;;;;;;6.20;4.85;;;;;;;;;;5110698;28;20531;-64
2022/03/09 00:40:36;;;;;;;8.70;5.38;;;;;;;;;;5086119;28;20039;-62
2022/03/09 00:43:02;;;;;;;8.55;5.60;;;;;;;;;;5108839;28;20040;-63
2022/03/09 00:45:29;;;;;;;7.07;5.88;;;;;;;;;;5110438;28;20043;-63
2022/03/09 00:47:55;;;;;;;6.38;5.30;;;;;;;;;;5101605;28;20040;-62
2022/03/09 00:50:21;;;;;;;8.07;5.60;;;;;;;;;;5061223;28;20036;-64
2022/03/09 00:52:47;;;;;;;6.80;5.72;;;;;;;;;;5105196;28;20027;-62
2022/03/09 00:55:13;;;;;;;7.53;5.93;;;;;;;;;;5112752;28;20071;-61
2022/03/09 00:57:40;;;;;;;7.95;5.70;;;;;;;;;;5103067;28;20034;-64
2022/03/09 01:00:06;;;;;;;8.18;5.55;;;;;;;;;;5105056;28;20118;-62
2022/03/09 01:02:32;;;;;;;8.48;6.03;;;;;;;;;;5102535;28;20031;-61
2022/03/09 01:04:58;;;;;;;8.93;5.47;;;;;;;;;;5099020;28;20123;-61
2022/03/09 01:07:24;;;;;;;9.10;6.00;;;;;;;;;;5105695;28;20040;-62
2022/03/09 01:09:50;;;;;;;7.65;5.70;;;;;;;;;;5100445;28;20032;-62
2022/03/09 01:12:16;;;;;;;8.27;6.18;;;;;;;;;;5098039;28;20035;-61
2022/03/09 01:14:42;;;;;;;7.22;6.13;;;;;;;;;;5100132;28;20366;-62
2022/03/09 01:17:08;;;;;;;7.80;5.53;;;;;;;;;;5091767;28;20572;-62
2022/03/09 01:19:34;;;;;;;8.32;6.13;;;;;;;;;;5092000;28;20036;-62
2022/03/09 01:22:00;;;;;;;7.80;5.97;;;;;;;;;;5105765;28;20038;-61
2022/03/09 01:24:26;;;;;;;7.57;5.60;;;;;;;;;;5103268;28;20034;-62
2022/03/09 01:26:52;;;;;;;8.65;6.13;;;;;;;;;;5074175;28;20044;-62
2022/03/09 01:29:18;;;;;;;6.97;5.38;;;;;;;;;;5100106;28;20036;-61
2022/03/09 01:31:45;;;;;;;9.23;5.85;;;;;;;;;;5090603;28;20079;-61
2022/03/09 01:34:11;;;;;;;8.30;5.88;;;;;;;;;;5077903;28;20044;-61
2022/03/09 01:36:37;;;;;;;7.03;5.72;;;;;;;;;;5095687;28;20189;-60
2022/03/09 01:39:03;;;;;;;7.72;6.07;;;;;;;;;;5085600;28;20074;-61
2022/03/09 01:41:29;;;;;;;8.68;6.20;;;;;;;;;;5105173;28;20069;-63
2022/03/09 01:44:24;;;;;;;9.45;6.40;;;;;;;;;;5090974;28;20079;-65
2022/03/09 01:46:51;;;;;;;8.15;6.40;;;;;;;;;;5077876;28;20579;-64
2022/03/09 01:49:18;;;;;;;8.55;6.57;;;;;;;;;;5091461;28;20443;-65
2022/03/09 01:51:46;;;;;;;9.15;6.60;;;;;;;;;;5107752;28;20046;-65
2022/03/09 01:54:12;;;;;;;8.05;6.07;;;;;;;;;;5108490;28;20078;-65
2022/03/09 01:56:39;;;;;;;9.25;6.40;;;;;;;;;;5111823;28;20039;-64
2022/03/09 01:59:10;;;;;;;8.48;6.22;;;;;;;;;;5102691;28;20420;-63
2022/03/09 02:01:36;;;;;;;7.47;6.10;;;;;;;;;;5053048;28;20047;-62
2022/03/09 02:04:03;;;;;;;8.32;6.00;;;;;;;;;;5079017;28;20036;-64
2022/03/09 02:06:31;;;;;;;9.27;6.38;;;;;;;;;;5085614;28;20043;-61
2022/03/09 02:11:43;;;;;;;9.98;6.57;;;;;;;;;;5103205;28;20119;-61
2022/03/09 02:14:27;;;;;;;8.98;6.38;;;;;;;;;;5109906;28;20369;-61
2022/03/09 02:16:54;;;;;;;9.43;6.72;;;;;;;;;;5096698;28;20043;-61
2022/03/09 02:19:20;;;;;;;10.85;6.60;;;;;;;;;;5094737;28;20532;-62
2022/03/09 02:21:48;;;;;;;12.38;7.55;;;;;;;;;;5110986;28;20043;-61
2022/03/09 02:24:14;;;;;;;13.45;7.00;;;;;;;;;;5102386;28;20059;-60
2022/03/09 02:26:41;;;;;;;10.07;7.25;;;;;;;;;;5091454;28;20032;-60
2022/03/09 02:29:07;;;;;;;9.23;7.10;;;;;;;;;;5102134;28;20034;-62
2022/03/09 02:31:33;;;;;;;9.45;7.40;;;;;;;;;;5098696;28;20040;-61
2022/03/09 02:33:59;;;;;;;10.73;6.57;;;;;;;;;;5106641;28;20031;-62
2022/03/09 02:36:25;;;;;;;9.88;6.88;;;;;;;;;;5088876;28;20036;-60
2022/03/09 02:38:51;;;;;;;12.75;7.97;;;;;;;;;;5096507;28;20127;-63
2022/03/09 02:41:17;;;;;;;8.73;7.22;;;;;;;;;;5095046;28;20050;-61
2022/03/09 02:43:43;;;;;;;10.52;6.82;;;;;;;;;;5109403;28;20131;-62
2022/03/09 02:46:09;;;;;;;9.80;6.68;;;;;;;;;;5112907;28;20043;-64
2022/03/09 02:48:35;;;;;;;9.85;6.40;;;;;;;;;;5102499;28;20032;-64
2022/03/09 02:51:01;;;;;;;9.77;6.85;;;;;;;;;;5077583;28;20413;-64
2022/03/09 02:53:27;;;;;;;8.90;6.40;;;;;;;;;;5104513;28;20100;-63
2022/03/09 02:55:53;;;;;;;9.20;6.80;;;;;;;;;;5115970;28;20096;-63
2022/03/09 02:58:19;;;;;;;9.48;7.07;;;;;;;;;;5098242;28;20050;-63
2022/03/09 03:00:45;;;;;;;12.15;8.43;;;;;;;;;;5116124;28;20162;-63
2022/03/09 03:03:11;;;;;;;13.40;7.30;;;;;;;;;;5115771;28;20044;-63
2022/03/09 03:05:37;;;;;;;10.90;7.55;;;;;;;;;;5096654;28;20039;-63
2022/03/09 03:08:03;;;;;;;12.98;7.43;;;;;;;;;;5115405;28;20500;-63
2022/03/09 03:10:29;;;;;;;11.38;7.93;;;;;;;;;;5096940;28;20101;-62
2022/03/09 03:12:55;;;;;;;10.20;7.32;;;;;;;;;;5108129;28;20039;-63
2022/03/09 03:15:21;;;;;;;13.00;8.15;;;;;;;;;;5114559;28;20040;-62
2022/03/09 03:17:47;;;;;;;11.02;7.57;;;;;;;;;;5057010;28;20127;-62
2022/03/09 03:20:13;;;;;;;9.77;8.15;;;;;;;;;;5088901;28;20085;-61
2022/03/09 03:22:39;;;;;;;11.18;7.60;;;;;;;;;;5095768;28;20102;-64
2022/03/09 03:25:05;;;;;;;8.95;6.78;;;;;;;;;;5078327;28;20040;-63
2022/03/09 03:27:31;;;;;;;11.05;7.63;;;;;;;;;;5112622;28;20082;-62
2022/03/09 03:29:58;;;;;;;11.98;7.65;;;;;;;;;;5101932;28;20589;-64
2022/03/09 03:32:24;;;;;;;12.68;8.18;;;;;;;;;;5094363;28;20079;-64
2022/03/09 03:34:50;;;;;;;10.18;7.88;;;;;;;;;;5097790;28;20042;-63
2022/03/09 03:37:16;;;;;;;10.70;7.75;;;;;;;;;;5108221;28;20102;-63
2022/03/09 03:39:42;;;;;;;11.88;7.97;;;;;;;;;;5094621;28;20074;-63
2022/03/09 03:42:08;;;;;;;11.40;7.50;;;;;;;;;;5094208;28;20112;-61
2022/03/09 03:44:34;;;;;;;11.93;7.22;;;;;;;;;;5111872;28;20036;-64
2022/03/09 03:47:00;;;;;;;12.63;7.65;;;;;;;;;;5095889;28;20397;-63
2022/03/09 03:49:26;;;;;;;9.52;7.25;;;;;;;;;;5085188;28;20485;-63
2022/03/09 03:51:52;;;;;;;10.25;7.72;;;;;;;;;;5102771;28;20096;-63
2022/03/09 03:54:18;;;;;;;11.93;8.05;;;;;;;;;;5097256;28;20036;-63
2022/03/09 03:56:46;;;;;;;10.73;7.38;;;;;;;;;;5104242;28;20503;-62
2022/03/09 03:59:12;;;;;;;12.60;8.30;;;;;;;;;;5093954;28;20118;-62
2022/03/09 04:01:38;;;;;;;13.18;7.78;;;;;;;;;;5094421;28;20532;-63
2022/03/09 04:04:04;;;;;;;10.98;7.78;;;;;;;;;;5114166;28;20043;-62
2022/03/09 04:06:30;;;;;;;13.10;8.40;;;;;;;;;;5105778;28;20142;-63
2022/03/09 04:08:56;;;;;;;11.68;8.13;;;;;;;;;;5114746;28;20089;-63
2022/03/09 04:11:22;;;;;;;11.90;7.63;;;;;;;;;;5089719;28;20046;-64
2022/03/09 04:13:48;;;;;;;14.15;8.68;;;;;;;;;;5093907;28;20036;-63
2022/03/09 04:16:15;;;;;;;11.90;8.25;;;;;;;;;;5093871;28;20164;-63
2022/03/09 04:18:41;;;;;;;11.40;8.45;;;;;;;;;;5102327;28;20088;-63
2022/03/09 04:21:07;;;;;;;13.30;8.05;;;;;;;;;;5110838;28;20085;-62
2022/03/09 04:23:33;;;;;;;12.18;8.60;;;;;;;;;;5104508;28;20061;-61
2022/03/09 04:26:00;;;;;;;14.07;7.90;;;;;;;;;;5105697;28;20123;-62
2022/03/09 04:28:26;;;;;;;12.75;7.80;;;;;;;;;;5083189;28;20044;-62
2022/03/09 04:30:52;;;;;;;10.15;7.60;;;;;;;;;;5097649;28;20120;-62
2022/03/09 04:33:18;;;;;;;11.98;7.80;;;;;;;;;;5112065;28;20500;-62
2022/03/09 04:35:44;;;;;;;12.48;9.07;;;;;;;;;;5107689;28;20349;-61
2022/03/09 04:38:10;;;;;;;11.20;8.65;;;;;;;;;;5101277;28;20477;-62
2022/03/09 04:40:37;;;;;;;12.48;8.38;;;;;;;;;;5094866;28;20438;-61
2022/03/09 04:43:03;;;;;;;12.10;8.32;;;;;;;;;;5110561;28;20055;-61
2022/03/09 04:45:29;;;;;;;11.27;7.95;;;;;;;;;;5107326;28;20127;-62
2022/03/09 04:47:55;;;;;;;13.73;8.52;;;;;;;;;;5103561;28;20443;-61
2022/03/09 04:50:21;;;;;;;12.45;7.93;;;;;;;;;;5094475;28;20028;-60
2022/03/09 04:52:47;;;;;;;11.05;8.10;;;;;;;;;;5100440;28;20488;-61
2022/03/09 04:55:13;;;;;;;13.63;8.38;;;;;;;;;;5093117;28;20119;-62
2022/03/09 04:57:39;;;;;;;13.85;8.38;;;;;;;;;;5100854;28;20486;-61
2022/03/09 05:00:06;;;;;;;12.32;7.90;;;;;;;;;;5093004;28;20044;-61
2022/03/09 05:02:32;;;;;;;11.63;8.20;;;;;;;;;;5105126;28;20036;-60
2022/03/09 05:04:58;;;;;;;14.20;8.75;;;;;;;;;;5110791;28;20084;-60
2022/03/09 05:07:24;;;;;;;13.82;8.40;;;;;;;;;;5111835;28;20042;-60
2022/03/09 05:09:50;;;;;;;11.23;8.02;;;;;;;;;;5105953;28;20063;-61
2022/03/09 05:12:16;;;;;;;11.98;7.75;;;;;;;;;;5093301;28;20032;-61
2022/03/09 05:14:42;;;;;;;11.80;8.35;;;;;;;;;;5111464;28;20082;-60
2022/03/09 05:17:08;;;;;;;10.55;7.85;;;;;;;;;;5103420;28;20404;-60
2022/03/09 05:19:34;;;;;;;13.18;8.20;;;;;;;;;;5100117;28;20377;-61
2022/03/09 05:22:00;;;;;;;10.75;7.88;;;;;;;;;;5085873;28;20439;-60
2022/03/09 05:24:27;;;;;;;12.95;8.07;;;;;;;;;;5051327;28;20041;-60
2022/03/09 05:26:53;;;;;;;10.40;8.05;;;;;;;;;;5080897;28;20502;-62
2022/03/09 05:29:19;;;;;;;14.60;8.93;;;;;;;;;;5089735;28;20036;-59
2022/03/09 05:31:45;;;;;;;11.55;8.60;;;;;;;;;;5089588;28;20401;-59
2022/03/09 05:34:12;;;;;;;11.70;8.25;;;;;;;;;;5090930;28;20386;-60
2022/03/09 05:36:38;;;;;;;14.48;8.82;;;;;;;;;;5090041;28;20477;-61
2022/03/09 05:39:04;;;;;;;15.45;8.85;;;;;;;;;;5090551;28;20524;-60
2022/03/09 05:41:31;;;;;;;11.35;7.78;;;;;;;;;;5087254;28;20079;-60
2022/03/09 05:43:57;;;;;;;12.15;8.18;;;;;;;;;;5079368;28;20037;-60
2022/03/09 05:46:23;;;;;;;12.93;8.10;;;;;;;;;;5080245;28;20413;-60
2022/03/09 05:48:49;;;;;;;12.82;8.10;;;;;;;;;;5069323;28;20044;-61
2022/03/09 05:51:15;;;;;;;13.02;9.02;;;;;;;;;;5086916;28;20032;-61
2022/03/09 05:53:41;;;;;;;12.55;8.50;;;;;;;;;;5062991;28;20131;-61
2022/03/09 05:56:07;;;;;;;13.63;8.23;;;;;;;;;;5091694;28;20043;-63
2022/03/09 05:58:34;;;;;;;10.35;8.02;;;;;;;;;;5082245;28;20505;-58
2022/03/09 06:01:00;;;;;;;14.32;8.48;;;;;;;;;;5073656;28;20044;-62
2022/03/09 06:03:26;;;;;;;15.20;8.35;;;;;;;;;;5076229;28;20040;-61
2022/03/09 06:05:52;;;;;;;14.60;9.00;;;;;;;;;;5081082;28;20048;-61
2022/03/09 06:08:18;;;;;;;11.98;8.15;;;;;;;;;;5078514;28;20174;-61
2022/03/09 06:10:44;;;;;;;10.13;7.53;;;;;;;;;;5079841;28;20463;-61
2022/03/09 06:13:10;;;;;;;12.15;7.95;;;;;;;;;;5089692;28;20477;-61
2022/03/09 06:15:36;;;;;;;13.05;8.82;;;;;;;;;;5091346;28;20465;-62
2022/03/09 06:18:02;;;;;;;11.90;8.23;;;;;;;;;;5089336;28;20043;-62
2022/03/09 06:20:28;;;;;;;10.30;7.32;;;;;;;;;;5086424;28;20040;-61
2022/03/09 06:22:55;;;;;;;13.55;9.20;;;;;;;;;;5086068;28;20068;-61
2022/03/09 06:25:21;;;;;;;12.20;8.48;;;;;;;;;;5085295;28;20036;-61
2022/03/09 06:27:50;;;;;;;13.90;8.43;;;;;;;;;;5084358;28;20131;-62
2022/03/09 06:30:16;;;;;;;12.75;8.50;;;;;;;;;;5084135;28;20055;-60
2022/03/09 06:32:43;;;;;;;10.80;7.38;;;;;;;;;;5083408;28;20444;-60
2022/03/09 06:35:09;;;;;;;11.07;7.35;;;;;;;;;;5084553;28;20573;-60
2022/03/09 06:37:36;;;;;;;11.48;8.05;;;;;;;;;;5087951;28;20432;-59
2022/03/09 06:40:03;;;;;;;11.93;8.40;;;;;;;;;;5091119;28;20565;-61
2022/03/09 06:42:29;;;;;;;10.18;7.53;;;;;;;;;;5083771;28;20036;-61
2022/03/09 06:44:55;;;;;;;10.02;7.60;;;;;;;;;;5085915;28;20041;-62
2022/03/09 06:47:21;;;;;;;13.63;8.25;;;;;;;;;;5086535;28;20396;-61
2022/03/09 06:49:47;;;;;;;12.02;7.90;;;;;;;;;;5081083;28;20051;-61
2022/03/09 06:52:13;;;;;;;12.50;8.20;;;;;;;;;;5086890;28;20040;-60
2022/03/09 06:54:40;;;;;;;11.63;8.20;;;;;;;;;;5083823;28;20036;-60
2022/03/09 06:57:06;;;;;;;13.40;8.25;;;;;;;;;;5080994;28;20039;-60
2022/03/09 06:59:32;;;;;;;12.48;8.85;;;;;;;;;;5082249;28;20115;-61
2022/03/09 07:01:58;;;;;;;12.27;8.80;;;;;;;;;;5080867;28;20048;-61
2022/03/09 07:04:24;;;;;;;11.27;8.60;;;;;;;;;;5077235;28;20563;-61
2022/03/09 07:06:50;;;;;;;13.48;7.95;;;;;;;;;;5078920;28;20040;-61
2022/03/09 07:09:16;;;;;;;15.70;8.20;;;;;;;;;;5077699;28;20036;-61
2022/03/09 07:11:43;;;;;;;11.85;8.52;;;;;;;;;;5087955;28;20132;-61
2022/03/09 07:14:10;;;;;;;13.48;8.77;;;;;;;;;;5082047;28;20036;-61
2022/03/09 07:16:36;;;;;;;13.95;9.00;;;;;;;;;;5081800;28;20380;-61
2022/03/09 07:19:02;;;;;;;12.75;7.82;;;;;;;;;;5080655;28;20032;-62
2022/03/09 07:21:28;;;;;;;16.40;7.60;;;;;;;;;;5075782;28;20032;-60
2022/03/09 07:23:54;;;;;;;12.43;8.30;;;;;;;;;;5077859;28;20123;-59
2022/03/09 07:26:20;;;;;;;12.43;8.02;;;;;;;;;;5083176;28;20074;-59
2022/03/09 07:28:46;;;;;;;11.57;8.43;;;;;;;;;;5090360;28;20040;-59
2022/03/09 07:31:12;;;;;;;10.90;7.80;;;;;;;;;;5081059;28;20036;-62
2022/03/09 07:33:38;;;;;;;12.32;8.48;;;;;;;;;;5087015;28;20032;-61
2022/03/09 07:36:04;;;;;;;11.57;8.18;;;;;;;;;;5088569;28;20044;-63
2022/03/09 07:38:30;;;;;;;11.77;8.23;;;;;;;;;;5088146;28;20075;-63
2022/03/09 07:40:56;;;;;;;11.73;7.65;;;;;;;;;;5083863;28;20043;-61
2022/03/09 07:43:23;;;;;;;11.95;8.38;;;;;;;;;;5087136;28;20039;-62
2022/03/09 07:45:49;;;;;;;10.55;7.60;;;;;;;;;;5091532;28;20048;-60
2022/03/09 07:48:15;;;;;;;11.15;7.90;;;;;;;;;;5086907;28;20068;-60
2022/03/09 07:50:41;;;;;;;11.48;8.48;;;;;;;;;;5088831;28;20115;-60
2022/03/09 07:53:07;;;;;;;12.98;8.02;;;;;;;;;;5084655;28;20032;-59
2022/03/09 07:55:34;;;;;;;12.65;8.25;;;;;;;;;;5085382;28;20052;-60
2022/03/09 07:58:00;;;;;;;11.20;7.22;;;;;;;;;;5076727;28;20085;-59
2022/03/09 08:00:30;;;;;;;11.32;8.05;;;;;;;;;;5083304;28;20044;-61
2022/03/09 08:02:56;;;;;;;14.43;8.68;;;;;;;;;;5091769;28;20484;-60
2022/03/09 08:05:22;;;;;;;12.43;8.88;;;;;;;;;;5084902;28;20040;-60
2022/03/09 08:07:48;;;;;;;13.23;8.27;;;;;;;;;;5074309;28;20047;-60
2022/03/09 08:10:15;;;;;;;10.23;8.32;;;;;;;;;;5084641;28;20036;-59
2022/03/09 08:12:41;;;;;;;12.15;8.07;;;;;;;;;;5083989;28;20158;-62
2022/03/09 08:15:07;;;;;;;10.93;7.72;;;;;;;;;;5088859;28;20493;-62
2022/03/09 08:17:34;;;;;;;12.23;8.20;;;;;;;;;;5085529;28;20127;-61
2022/03/09 08:20:00;;;;;;;11.02;8.18;;;;;;;;;;5080682;28;20032;-62
2022/03/09 08:22:26;;;;;;;10.48;7.90;;;;;;;;;;5080391;28;20040;-61
2022/03/09 08:24:52;;;;;;;10.43;8.25;;;;;;;;;;5082217;28;20127;-61
2022/03/09 08:27:18;;;;;;;11.52;7.97;;;;;;;;;;5063945;28;20044;-61
2022/03/09 08:29:44;;;;;;;10.85;8.05;;;;;;;;;;5068695;28;20040;-61
2022/03/09 08:32:10;;;;;;;9.27;7.40;;;;;;;;;;5089985;28;20040;-61
2022/03/09 08:34:36;;;;;;;11.90;8.57;;;;;;;;;;5081328;28;20481;-61
2022/03/09 08:37:02;;;;;;;10.75;7.70;;;;;;;;;;5090083;28;20047;-61
2022/03/09 08:39:28;;;;;;;9.88;7.88;;;;;;;;;;5076909;28;20036;-61
2022/03/09 08:41:54;;;;;;;12.02;8.13;;;;;;;;;;5086608;28;20032;-61
2022/03/09 08:44:21;;;;;;;12.88;8.70;;;;;;;;;;5082159;28;20036;-61
2022/03/09 08:46:47;;;;;;;10.00;8.63;;;;;;;;;;5083148;28;20055;-62
2022/03/09 08:49:14;;;;;;;12.43;8.20;;;;;;;;;;5084043;28;20489;-60
2022/03/09 08:51:40;;;;;;;9.85;7.57;;;;;;;;;;5085658;28;20047;-62
2022/03/09 08:54:06;;;;;;;10.52;7.55;;;;;;;;;;5078528;28;20110;-62
2022/03/09 08:56:32;;;;;;;9.95;7.68;;;;;;;;;;5080692;28;20040;-62
2022/03/09 08:58:59;;;;;;;10.48;8.45;;;;;;;;;;5082190;28;20040;-62
2022/03/09 09:01:25;;;;;;;10.25;7.82;;;;;;;;;;5074966;28;20052;-62
2022/03/09 09:03:51;;;;;;;9.70;7.38;;;;;;;;;;5087538;28;20040;-62
2022/03/09 09:06:17;;;;;;;10.07;7.70;;;;;;;;;;5080510;28;20355;-62
2022/03/09 09:08:44;;;;;;;8.75;7.78;;;;;;;;;;5080574;28;20048;-62
2022/03/09 09:11:10;;;;;;;9.45;7.78;;;;;;;;;;5091818;28;20402;-61
2022/03/09 09:13:36;;;;;;;10.20;8.32;;;;;;;;;;5088124;28;20035;-62
2022/03/09 09:16:03;;;;;;;9.15;7.07;;;;;;;;;;5069139;28;20036;-62
2022/03/09 09:18:29;;;;;;;12.57;8.00;;;;;;;;;;5082652;28;20116;-63
2022/03/09 09:20:56;;;;;;;8.93;7.32;;;;;;;;;;5086682;28;20032;-63
2022/03/09 09:23:23;;;;;;;10.75;7.45;;;;;;;;;;5080822;28;20032;-62
2022/03/09 09:25:49;;;;;;;9.73;7.40;;;;;;;;;;5086639;28;20448;-63
2022/03/09 09:28:17;;;;;;;9.40;8.02;;;;;;;;;;5087194;28;20055;-63
2022/03/09 09:30:43;;;;;;;12.48;7.57;;;;;;;;;;5086405;28;20038;-63
2022/03/09 09:33:10;;;;;;;9.30;7.63;;;;;;;;;;5073544;28;20036;-63
2022/03/09 09:35:36;;;;;;;10.25;7.20;;;;;;;;;;5086625;28;20530;-63
2022/03/09 09:38:06;;;;;;;8.40;7.45;;;;;;;;;;5087465;28;20062;-63
2022/03/09 09:40:34;;;;;;;8.80;7.72;;;;;;;;;;5086174;28;20592;-63
2022/03/09 09:43:07;;;;;;;11.77;7.82;;;;;;;;;;5084621;28;20042;-64
2022/03/09 09:45:35;;;;;;;10.25;7.57;;;;;;;;;;5067009;28;20451;-63
2022/03/09 09:48:02;;;;;;;9.13;8.15;;;;;;;;;;5074600;28;20523;-61
2022/03/09 09:50:28;;;;;;;9.52;7.70;;;;;;;;;;5083229;28;20029;-63
2022/03/09 09:52:55;;;;;;;9.98;7.57;;;;;;;;;;5061396;28;20105;-63
2022/03/09 09:55:21;;;;;;;8.57;7.65;;;;;;;;;;5078519;28;20043;-63
2022/03/09 09:57:47;;;;;;;8.10;7.25;;;;;;;;;;5077427;28;20046;-61
2022/03/09 10:00:14;;;;;;;10.90;8.13;;;;;;;;;;5080750;28;20082;-63
2022/03/09 10:02:41;;;;;;;8.07;7.28;;;;;;;;;;5085168;28;20122;-63
2022/03/09 10:05:08;;;;;;;8.80;7.78;;;;;;;;;;5078619;28;20401;-63
2022/03/09 10:07:34;;;;;;;10.68;7.90;;;;;;;;;;5081808;28;20046;-63
2022/03/09 10:10:00;;;;;;;9.48;7.85;;;;;;;;;;5087932;28;20071;-63
2022/03/09 10:12:29;;;;;;;9.30;7.90;;;;;;;;;;5083735;28;20540;-64
2022/03/09 10:14:56;;;;;;;11.35;7.90;;;;;;;;;;5082818;28;20039;-63
2022/03/09 10:17:25;;;;;;;9.60;8.48;;;;;;;;;;5086210;28;20040;-63
2022/03/09 10:19:52;;;;;;;9.52;8.63;;;;;;;;;;5081462;28;20044;-64
2022/03/09 10:22:22;;;;;;;8.80;7.97;;;;;;;;;;5084305;28;20081;-64
2022/03/09 10:24:48;;;;;;;8.27;7.40;;;;;;;;;;5086030;28;20036;-63
2022/03/09 10:27:31;;;;;;;11.40;8.43;;;;;;;;;;5064674;28;20583;-61
2022/03/09 10:29:57;;;;;;;10.98;7.97;;;;;;;;;;5084043;28;20042;-64
2022/03/09 10:32:41;;;;;;;9.45;8.48;;;;;;;;;;5079310;28;20033;-63
2022/03/09 10:35:07;;;;;;;;;;;;;;;;;;5087610;28;20418;-62
2022/03/09 10:37:40;;;;;;;9.18;8.23;;;;;;;;;;5078533;28;20004;-63
2022/03/09 10:40:14;;;;;;;9.48;8.48;;;;;;;;;;5086693;28;20100;-63
2022/03/09 10:42:40;;;;;;;9.55;8.55;;;;;;;;;;5070775;28;20405;-64
2022/03/09 10:45:08;;;;;;;9.88;8.63;;;;;;;;;;5086835;28;20032;-63
2022/03/09 10:47:37;;;;;;;8.68;7.88;;;;;;;;;;5078923;28;20120;-63
2022/03/09 10:50:14;;;;;;;9.57;8.57;;;;;;;;;;5083889;28;20485;-63
2022/03/09 10:52:45;;;;;;;12.68;8.55;;;;;;;;;;5088359;28;20061;-64
2022/03/09 10:55:24;;;;;;;9.52;8.32;;;;;;;;;;5081455;28;20032;-62
2022/03/09 10:57:51;;;;;;;8.82;8.00;;;;;;;;;;5078822;28;20394;-63
2022/03/09 11:00:34;;;;;;;9.93;8.93;;;;;;;;;;5078032;28;20122;-64
2022/03/09 11:03:05;;;;;;;8.98;7.95;;;;;;;;;;5086096;28;20043;-63
2022/03/09 11:05:31;;;;;;;11.07;8.50;;;;;;;;;;5086084;28;20037;-63
2022/03/09 11:07:58;;;;;;;9.60;8.13;;;;;;;;;;5086715;28;20033;-65
2022/03/09 11:10:26;;;;;;;11.13;8.52;;;;;;;;;;5089357;28;20040;-64
2022/03/09 11:12:52;;;;;;;9.30;8.40;;;;;;;;;;5093679;28;20036;-64
2022/03/09 11:15:20;;;;;;;11.93;9.00;;;;;;;;;;5086366;28;20396;-65
2022/03/09 11:17:48;;;;;;;9.45;8.45;;;;;;;;;;5075894;28;20044;-64
2022/03/09 11:20:16;;;;;;;8.57;7.78;;;;;;;;;;5087788;28;20391;-64
2022/03/09 11:22:43;;;;;;;9.13;8.27;;;;;;;;;;5076105;28;20043;-64
2022/03/09 11:25:10;;;;;;;11.02;8.63;;;;;;;;;;5075479;28;20063;-65
2022/03/09 11:27:43;;;;;;;9.43;8.52;;;;;;;;;;5089283;28;20041;-63
2022/03/09 11:30:25;;;;;;;9.50;8.45;;;;;;;;;;5092793;28;20060;-64
2022/03/09 11:32:54;;;;;;;10.90;9.10;;;;;;;;;;5067899;28;20051;-65
2022/03/09 11:35:32;;;;;;;9.77;8.77;;;;;;;;;;5076255;28;20111;-64
2022/03/09 11:37:58;;;;;;;10.02;9.00;;;;;;;;;;5083049;28;20032;-63
2022/03/09 11:40:24;;;;;;;9.38;8.40;;;;;;;;;;5089361;28;20405;-64
2022/03/09 11:42:51;;;;;;;11.30;8.40;;;;;;;;;;5094655;28;20538;-63
2022/03/09 11:45:17;;;;;;;11.20;9.35;;;;;;;;;;5095087;28;20040;-64
2022/03/09 11:47:58;;;;;;;9.68;8.68;;;;;;;;;;5094164;28;20074;-64
2022/03/09 11:50:24;;;;;;;9.82;8.93;;;;;;;;;;5094077;28;20078;-64
2022/03/09 11:53:07;;;;;;;9.68;8.68;;;;;;;;;;5056300;28;20075;-65
2022/03/09 11:55:34;;;;;;;9.47;8.50;;;;;;;;;;5089699;28;20050;-64
2022/03/09 11:58:01;;;;;;;9.68;8.68;;;;;;;;;;5085665;28;20636;-65
2022/03/09 12:00:27;;;;;;;10.07;9.07;;;;;;;;;;5075916;28;20040;-63
2022/03/09 12:02:57;;;;;;;9.25;8.38;;;;;;;;;;5092271;28;20055;-62
2022/03/09 12:05:26;;;;;;;9.52;8.63;;;;;;;;;;5084600;28;20374;-63
2022/03/09 12:07:58;;;;;;;11.07;9.00;;;;;;;;;;5085702;28;20044;-65
2022/03/09 12:10:41;;;;;;;10.43;8.98;;;;;;;;;;5086603;28;20090;-64
2022/03/09 12:13:07;;;;;;;11.43;8.70;;;;;;;;;;5076135;28;20045;-65
2022/03/09 12:15:53;;;;;;;9.88;8.90;;;;;;;;;;5093747;28;20036;-65
2022/03/09 12:18:34;;;;;;;10.38;9.35;;;;;;;;;;5076092;28;20098;-65
2022/03/09 12:21:00;;;;;;;10.00;9.10;;;;;;;;;;5093786;28;20496;-65
2022/03/09 12:23:26;;;;;;;9.68;8.77;;;;;;;;;;5093732;28;20501;-65
2022/03/09 12:25:53;;;;;;;9.70;8.70;;;;;;;;;;5093887;28;20126;-65
2022/03/09 12:28:25;;;;;;;10.70;9.60;;;;;;;;;;5075860;28;20052;-65
2022/03/09 12:31:07;;;;;;;9.85;8.90;;;;;;;;;;5075902;28;20040;-64
2022/03/09 12:33:35;;;;;;;10.35;9.02;;;;;;;;;;5094024;28;20042;-65
2022/03/09 12:36:16;;;;;;;11.15;9.25;;;;;;;;;;5093733;28;20036;-64
2022/03/09 12:38:47;;;;;;;10.27;9.10;;;;;;;;;;5091095;28;20036;-64
2022/03/09 12:41:32;;;;;;;10.68;9.70;;;;;;;;;;5075616;28;20068;-65
2022/03/09 12:44:00;;;;;;;10.25;9.25;;;;;;;;;;5089246;28;20093;-63
2022/03/09 12:46:27;;;;;;;10.23;9.27;;;;;;;;;;5092830;28;20124;-64
2022/03/09 12:49:03;;;;;;;10.02;9.02;;;;;;;;;;5091752;28;20032;-64
2022/03/09 12:51:30;;;;;;;12.45;9.20;;;;;;;;;;5091261;28;20499;-64
2022/03/09 12:53:56;;;;;;;11.20;9.05;;;;;;;;;;5065665;28;20434;-64
2022/03/09 12:56:26;;;;;;;9.80;8.63;;;;;;;;;;5073313;28;20039;-64
2022/03/09 12:58:53;;;;;;;11.35;10.15;;;;;;;;;;5090990;28;20048;-66
2022/03/09 13:01:22;;;;;;;10.45;9.45;;;;;;;;;;5064325;28;20596;-65
2022/03/09 13:03:49;;;;;;;10.13;8.75;;;;;;;;;;5087100;28;20047;-63
2022/03/09 13:06:29;;;;;;;10.35;9.23;;;;;;;;;;5073642;28;20116;-64
2022/03/09 13:08:55;;;;;;;10.90;9.80;;;;;;;;;;5090717;28;20028;-66
2022/03/09 13:11:33;;;;;;;10.10;9.10;;;;;;;;;;5076247;28;20393;-67
2022/03/09 13:13:59;;;;;;;10.20;9.25;;;;;;;;;;5065542;28;20520;-67
2022/03/09 13:16:26;;;;;;;10.68;9.57;;;;;;;;;;5089173;28;20496;-67
2022/03/09 13:18:56;;;;;;;9.82;8.93;;;;;;;;;;5091350;28;20496;-66
2022/03/09 13:21:29;;;;;;;10.70;9.60;;;;;;;;;;5088106;28;20044;-68
2022/03/09 13:23:59;;;;;;;10.88;9.27;;;;;;;;;;5087467;28;20262;-66
2022/03/09 13:26:27;;;;;;;10.40;9.38;;;;;;;;;;5088079;28;20033;-64
2022/03/09 13:28:54;;;;;;;10.77;9.73;;;;;;;;;;5088702;28;20043;-65
2022/03/09 13:31:20;;;;;;;10.02;9.07;;;;;;;;;;5064878;28;20119;-65
2022/03/09 13:33:51;;;;;;;10.15;9.15;;;;;;;;;;5085874;28;20054;-65
2022/03/09 13:36:19;;;;;;;10.10;9.13;;;;;;;;;;5084549;28;20037;-66
2022/03/09 13:38:56;;;;;;;10.27;9.35;;;;;;;;;;5066259;28;20042;-66
2022/03/09 13:41:22;;;;;;;10.65;9.52;;;;;;;;;;5087498;28;20032;-66
2022/03/09 13:43:48;;;;;;;11.00;9.90;;;;;;;;;;5090745;28;20086;-64
2022/03/09 13:46:14;;;;;;;10.93;9.38;;;;;;;;;;5082909;28;20058;-64
2022/03/09 13:48:40;;;;;;;10.30;9.40;;;;;;;;;;5087542;28;20116;-65
2022/03/09 13:51:07;;;;;;;10.13;8.82;;;;;;;;;;5084969;28;20051;-64
2022/03/09 13:53:42;;;;;;;10.05;9.05;;;;;;;;;;5063652;28;20123;-66
2022/03/09 13:56:19;;;;;;;10.93;9.73;;;;;;;;;;5081984;28;20565;-64
2022/03/09 13:58:46;;;;;;;10.10;9.20;;;;;;;;;;5088247;28;20516;-66
2022/03/09 14:01:14;;;;;;;9.82;8.98;;;;;;;;;;5093060;28;20039;-66
2022/03/09 14:03:46;;;;;;;9.63;8.82;;;;;;;;;;5112775;28;20075;-66
2022/03/09 14:06:30;;;;;;;11.05;9.85;;;;;;;;;;5112937;28;20035;-65
2022/03/09 14:08:57;;;;;;;10.52;9.43;;;;;;;;;;5095015;28;20461;-66
2022/03/09 14:11:23;;;;;;;10.57;9.65;;;;;;;;;;5092352;28;20072;-66
2022/03/09 14:14:01;;;;;;;9.35;8.52;;;;;;;;;;5092220;28;20035;-65
2022/03/09 14:16:43;;;;;;;10.60;9.55;;;;;;;;;;5091974;28;20123;-65
2022/03/09 14:19:12;;;;;;;10.85;9.85;;;;;;;;;;5091681;28;20036;-65
2022/03/09 14:21:39;;;;;;;11.00;9.93;;;;;;;;;;5091637;28;20040;-65
2022/03/09 14:24:05;;;;;;;11.98;9.65;;;;;;;;;;5092413;28;20044;-67
2022/03/09 14:26:32;;;;;;;10.13;9.30;;;;;;;;;;5094018;28;20039;-65
2022/03/09 14:28:58;;;;;;;10.63;9.60;;;;;;;;;;5071774;28;20072;-65
2022/03/09 14:31:26;;;;;;;10.48;9.38;;;;;;;;;;5071745;28;20041;-65
2022/03/09 14:33:52;;;;;;;11.88;10.68;;;;;;;;;;5071180;28;20036;-65
2022/03/09 14:36:19;;;;;;;10.73;9.57;;;;;;;;;;5074495;28;20044;-66
2022/03/09 14:38:45;;;;;;;10.77;9.68;;;;;;;;;;5091365;28;20052;-65
2022/03/09 14:41:12;;;;;;;11.15;10.00;;;;;;;;;;5100778;28;20043;-65